Time;durP1;ratioP1;P1;durP2;ratioP2;P2;SDS_P1;SDS_P2;PMS_P1;PMS_P2;Temp;Humidity;BMP_temperature;BMP_pressure;BME280_temperature;BME280_humidity;BME280_pressure;Samples;Min_cycle;Max_cycle;Signal;HPM_P1;HPM_P2
2022/11/22 00:02:04;;;;;;;;;;;15.80;45.00;;;;;;5173193;27;20290;-68
2022/11/22 00:04:29;;;;;;;;;;;15.80;45.00;;;;;;5172905;27;19977;-68
2022/11/22 00:06:55;;;;;;;;;;;15.80;45.00;;;;;;5191914;27;20009;-70
2022/11/22 00:09:20;;;;;;;;;;;15.80;45.00;;;;;;5192137;27;20369;-68
2022/11/22 00:11:46;;;;;;;;;;;15.80;45.00;;;;;;5191938;27;20255;-68
2022/11/22 00:14:11;;;;;;;;;;;15.80;45.00;;;;;;5183092;27;20365;-68
2022/11/22 00:16:37;;;;;;;;;;;15.80;45.00;;;;;;5177903;27;19919;-69
2022/11/22 00:19:03;;;;;;;;;;;15.80;45.10;;;;;;5178030;27;20373;-68
2022/11/22 00:21:28;;;;;;;;;;;15.70;44.90;;;;;;5158819;27;19918;-68
2022/11/22 00:23:56;;;;;;;;;;;15.80;45.00;;;;;;5159202;27;19923;-68
2022/11/22 00:26:22;;;;;;;;;;;15.80;45.00;;;;;;5159182;27;19918;-68
2022/11/22 00:28:48;;;;;;;;;;;15.80;45.10;;;;;;5158967;27;19919;-68
2022/11/22 00:31:13;;;;;;;;;;;15.70;45.10;;;;;;5159011;27;19974;-68
2022/11/22 00:33:39;;;;;;;;;;;15.80;45.10;;;;;;5159114;27;20358;-68
2022/11/22 00:36:04;;;;;;;;;;;15.80;45.20;;;;;;5158877;27;20024;-68
2022/11/22 00:38:30;;;;;;;;;;;15.70;45.10;;;;;;5158672;27;20054;-68
2022/11/22 00:40:55;;;;;;;;;;;15.80;45.20;;;;;;5158899;27;19919;-68
2022/11/22 00:43:21;;;;;;;;;;;15.70;45.20;;;;;;5158628;27;20286;-71
2022/11/22 00:45:46;;;;;;;;;;;15.80;45.20;;;;;;5177365;27;19926;-68
2022/11/22 00:48:12;;;;;;;;;;;16.00;45.10;;;;;;5177241;27;20369;-68
2022/11/22 00:50:37;;;;;;;;;;;16.30;44.60;;;;;;5158534;27;19926;-68
2022/11/22 00:53:03;;;;;;;;;;;16.70;43.90;;;;;;5158422;27;19919;-68
2022/11/22 00:55:29;;;;;;;;;;;17.00;43.30;;;;;;5176934;27;20107;-69
2022/11/22 00:57:54;;;;;;;;;;;17.50;42.70;;;;;;5158581;27;20014;-68
2022/11/22 01:00:20;;;;;;;;;;;18.00;41.70;;;;;;5177106;27;20297;-71
2022/11/22 01:02:45;;;;;;;;;;;18.70;40.70;;;;;;5158134;27;19923;-69
2022/11/22 01:05:11;;;;;;;;;;;19.30;39.70;;;;;;5158268;27;20326;-70
2022/11/22 01:07:36;;;;;;;;;;;19.80;38.70;;;;;;5176828;27;19926;-69
2022/11/22 01:10:02;;;;;;;;;;;20.40;37.90;;;;;;5176852;27;20365;-68
2022/11/22 01:12:28;;;;;;;;;;;20.70;37.20;;;;;;5176876;27;19962;-69
2022/11/22 01:14:53;;;;;;;;;;;21.10;36.60;;;;;;5158010;27;19961;-69
2022/11/22 01:17:19;;;;;;;;;;;21.40;36.10;;;;;;5158010;27;20002;-69
2022/11/22 01:19:44;;;;;;;;;;;21.60;35.70;;;;;;5176652;27;19970;-69
2022/11/22 01:22:10;;;;;;;;;;;21.80;35.50;;;;;;5157886;27;20425;-69
2022/11/22 01:24:35;;;;;;;;;;;22.00;35.20;;;;;;5157450;27;20377;-69
2022/11/22 01:27:01;;;;;;;;;;;22.10;35.00;;;;;;5175618;27;19918;-70
2022/11/22 01:29:26;;;;;;;;;;;22.30;34.90;;;;;;5157751;27;19919;-70
2022/11/22 01:31:52;;;;;;;;;;;22.30;34.70;;;;;;5157858;27;19922;-69
2022/11/22 01:34:17;;;;;;;;;;;22.30;34.60;;;;;;5157621;27;20370;-71
2022/11/22 01:36:43;;;;;;;;;;;22.40;34.70;;;;;;5176171;27;19919;-69
2022/11/22 01:39:08;;;;;;;;;;;22.20;34.60;;;;;;5157546;27;19922;-70
2022/11/22 01:41:34;;;;;;;;;;;22.20;34.70;;;;;;5157542;27;19918;-68
2022/11/22 01:44:19;;;;;;;;;;;22.10;34.80;;;;;;5157516;27;20508;-69
2022/11/22 01:46:47;;;;;;;;;;;22.00;35.00;;;;;;5162534;27;19919;-69
2022/11/22 01:49:18;;;;;;;;;;;21.80;35.20;;;;;;5154923;27;20292;-71
2022/11/22 01:51:45;;;;;;;;;;;21.50;35.30;;;;;;5154981;27;19919;-69
2022/11/22 01:54:14;;;;;;;;;;;21.50;35.60;;;;;;5136770;27;20240;-70
2022/11/22 01:56:41;;;;;;;;;;;21.20;35.80;;;;;;5136477;27;19930;-69
2022/11/22 01:59:09;;;;;;;;;;;21.10;36.10;;;;;;5154991;27;19925;-69
2022/11/22 02:01:35;;;;;;;;;;;21.00;36.30;;;;;;5136564;27;19941;-69
2022/11/22 02:04:01;;;;;;;;;;;20.80;36.40;;;;;;5132449;27;19924;-68
2022/11/22 02:06:31;;;;;;;;;;;20.80;36.60;;;;;;5132756;27;19926;-69
2022/11/22 02:09:04;;;;;;;;;;;20.70;36.70;;;;;;5134012;27;19920;-69
2022/11/22 02:11:29;;;;;;;;;;;20.60;36.80;;;;;;5132060;27;20438;-69
2022/11/22 02:13:56;;;;;;;;;;;20.60;36.90;;;;;;5132780;27;20006;-69
2022/11/22 02:16:21;;;;;;;;;;;20.60;36.90;;;;;;5132763;27;20059;-69
2022/11/22 02:18:47;;;;;;;;;;;20.60;36.90;;;;;;5133930;27;20022;-69
2022/11/22 02:21:12;;;;;;;;;;;20.70;36.80;;;;;;5132852;27;19966;-69
2022/11/22 02:26:18;;;;;;;;;;;19.40;35.90;;;;;;5089870;28;19912;-69
2022/11/22 02:28:44;;;;;;;;;;;20.90;36.50;;;;;;5089263;28;19927;-70
2022/11/22 02:31:29;;;;;;;;;;;21.00;36.40;;;;;;5088601;28;20384;-68
2022/11/22 02:33:55;;;;;;;;;;;21.10;36.30;;;;;;5088134;28;19920;-71
2022/11/22 02:36:20;;;;;;;;;;;21.20;36.10;;;;;;5088735;28;19925;-68
2022/11/22 02:38:45;;;;;;;;;;;21.20;36.10;;;;;;5088631;28;20282;-68
2022/11/22 02:41:11;;;;;;;;;;;21.30;36.00;;;;;;5088332;28;19920;-69
2022/11/22 02:43:38;;;;;;;;;;;21.30;36.00;;;;;;5088319;28;20016;-69
2022/11/22 02:46:05;;;;;;;;;;;21.30;36.00;;;;;;5088222;28;19928;-69
2022/11/22 02:48:31;;;;;;;;;;;21.30;36.00;;;;;;5088524;28;19924;-68
2022/11/22 02:50:56;;;;;;;;;;;21.30;36.00;;;;;;5089437;28;20382;-68
2022/11/22 02:53:22;;;;;;;;;;;21.10;36.00;;;;;;5089346;28;19981;-69
2022/11/22 02:55:47;;;;;;;;;;;21.20;36.10;;;;;;5088580;28;19927;-70
2022/11/22 02:58:13;;;;;;;;;;;21.10;36.10;;;;;;5089422;28;19920;-71
2022/11/22 03:00:38;;;;;;;;;;;21.10;36.30;;;;;;5088270;28;20421;-68
2022/11/22 03:03:04;;;;;;;;;;;21.00;36.30;;;;;;5087854;28;19928;-71
2022/11/22 03:05:30;;;;;;;;;;;21.00;36.40;;;;;;5087840;28;19929;-68
2022/11/22 03:07:55;;;;;;;;;;;20.90;36.50;;;;;;5087939;28;19926;-68
2022/11/22 03:10:21;;;;;;;;;;;20.90;36.50;;;;;;5089150;28;19934;-68
2022/11/22 03:12:46;;;;;;;;;;;20.80;36.60;;;;;;5087794;28;19954;-71
2022/11/22 03:15:12;;;;;;;;;;;20.70;36.70;;;;;;5088943;28;20002;-68
2022/11/22 03:17:37;;;;;;;;;;;20.70;36.90;;;;;;5088009;28;19920;-71
2022/11/22 03:20:03;;;;;;;;;;;20.70;37.00;;;;;;5087882;28;20407;-69
2022/11/22 03:22:29;;;;;;;;;;;20.70;37.00;;;;;;5087903;28;20410;-68
2022/11/22 03:24:54;;;;;;;;;;;20.70;37.00;;;;;;5097416;28;20395;-68
2022/11/22 03:27:20;;;;;;;;;;;20.60;37.00;;;;;;5090868;28;19924;-70
2022/11/22 03:29:45;;;;;;;;;;;20.70;36.90;;;;;;5090817;28;19920;-69
2022/11/22 03:32:11;;;;;;;;;;;20.80;36.90;;;;;;5090736;28;19920;-70
2022/11/22 03:34:37;;;;;;;;;;;20.80;36.80;;;;;;5090726;28;19920;-69
2022/11/22 03:37:02;;;;;;;;;;;20.80;36.70;;;;;;5098939;28;19975;-69
2022/11/22 03:39:28;;;;;;;;;;;20.80;36.70;;;;;;5095488;28;19959;-69
2022/11/22 03:41:55;;;;;;;;;;;20.80;36.70;;;;;;5077352;28;19924;-69
2022/11/22 03:44:21;;;;;;;;;;;20.90;36.70;;;;;;5077049;28;19928;-69
2022/11/22 03:46:46;;;;;;;;;;;20.90;36.60;;;;;;5095123;28;20268;-69
2022/11/22 03:49:12;;;;;;;;;;;20.90;36.50;;;;;;5095114;28;19994;-68
2022/11/22 03:51:38;;;;;;;;;;;21.00;36.60;;;;;;5076784;28;20368;-69
2022/11/22 03:54:03;;;;;;;;;;;21.00;36.50;;;;;;5095145;28;19924;-68
2022/11/22 03:56:29;;;;;;;;;;;21.00;36.50;;;;;;5095004;28;20161;-69
2022/11/22 03:58:54;;;;;;;;;;;21.00;36.50;;;;;;5094861;28;19965;-69
2022/11/22 04:01:20;;;;;;;;;;;21.00;36.40;;;;;;5094831;28;19924;-68
2022/11/22 04:03:45;;;;;;;;;;;21.00;36.40;;;;;;5077018;28;19924;-69
2022/11/22 04:06:11;;;;;;;;;;;21.00;36.40;;;;;;5076470;28;19967;-71
2022/11/22 04:08:36;;;;;;;;;;;21.00;36.40;;;;;;5076610;28;19920;-70
2022/11/22 04:11:02;;;;;;;;;;;21.00;36.50;;;;;;5076585;28;20002;-68
2022/11/22 04:15:05;;;;;;;;;;;21.00;36.60;;;;;;5076496;28;19955;-71
2022/11/22 04:16:13;;;;;;;;;;;20.90;36.60;;;;;;5093836;28;19920;-69
2022/11/22 04:18:38;;;;;;;;;;;20.90;36.70;;;;;;5075623;28;19920;-69
2022/11/22 04:21:35;;;;;;;;;;;20.90;36.70;;;;;;5094498;28;19943;-69
2022/11/22 04:25:12;;;;;;;;;;;20.90;36.80;;;;;;5076498;28;19920;-69
2022/11/22 04:26:35;;;;;;;;;;;20.80;36.80;;;;;;5075727;28;19947;-69
2022/11/22 04:29:00;;;;;;;;;;;20.80;36.80;;;;;;5094362;28;19920;-69
2022/11/22 04:34:11;;;;;;;;;;;20.80;37.00;;;;;;5075896;28;20434;-70
2022/11/22 04:36:37;;;;;;;;;;;20.70;37.00;;;;;;5076069;28;19920;-68
2022/11/22 04:39:02;;;;;;;;;;;20.70;37.10;;;;;;5075957;28;19927;-69
2022/11/22 04:41:28;;;;;;;;;;;20.70;37.10;;;;;;5075985;28;19920;-70
2022/11/22 04:46:39;;;;;;;;;;;20.70;37.10;;;;;;5094095;28;20305;-70
2022/11/22 04:49:04;;;;;;;;;;;20.70;37.10;;;;;;5092902;28;19927;-69
2022/11/22 04:54:15;;;;;;;;;;;20.80;37.10;;;;;;5075761;28;19932;-69
2022/11/22 04:56:41;;;;;;;;;;;20.80;37.10;;;;;;5075588;28;19920;-69
2022/11/22 04:59:07;;;;;;;;;;;20.80;37.10;;;;;;5093812;28;19920;-69
2022/11/22 05:01:32;;;;;;;;;;;20.70;37.00;;;;;;5075622;28;20414;-69
2022/11/22 05:03:57;;;;;;;;;;;20.70;37.10;;;;;;5093631;28;20020;-69
2022/11/22 05:06:23;;;;;;;;;;;20.80;37.10;;;;;;5093649;28;19926;-69
2022/11/22 05:08:48;;;;;;;;;;;20.80;37.10;;;;;;5075650;28;19926;-70
2022/11/22 05:11:14;;;;;;;;;;;20.80;37.10;;;;;;5093511;28;20282;-69
2022/11/22 05:13:41;;;;;;;;;;;20.90;37.10;;;;;;5075216;28;19934;-69
2022/11/22 05:16:08;;;;;;;;;;;20.90;37.00;;;;;;5075544;28;19920;-69
2022/11/22 05:18:33;;;;;;;;;;;21.00;37.10;;;;;;5093469;28;19920;-69
2022/11/22 05:21:03;;;;;;;;;;;21.10;37.00;;;;;;5093417;28;20295;-69
2022/11/22 05:24:00;;;;;;;;;;;21.00;36.90;;;;;;5093311;28;19927;-71
2022/11/22 05:26:14;;;;;;;;;;;21.00;36.80;;;;;;5057201;28;19928;-70
2022/11/22 05:28:40;;;;;;;;;;;21.10;36.80;;;;;;5071957;28;20286;-71
2022/11/22 05:31:06;;;;;;;;;;;21.10;36.70;;;;;;5071593;28;20391;-70
2022/11/22 05:33:32;;;;;;;;;;;21.20;36.70;;;;;;5071548;28;19927;-69
2022/11/22 05:35:59;;;;;;;;;;;21.20;36.60;;;;;;5071478;28;19921;-69
2022/11/22 05:38:24;;;;;;;;;;;21.20;36.60;;;;;;5071803;28;19967;-69
2022/11/22 05:40:50;;;;;;;;;;;21.20;36.70;;;;;;5072519;28;20355;-69
2022/11/22 05:43:15;;;;;;;;;;;21.20;36.70;;;;;;5071712;28;19920;-69
2022/11/22 05:45:41;;;;;;;;;;;21.20;36.70;;;;;;5072569;28;20277;-70
2022/11/22 05:48:06;;;;;;;;;;;21.20;36.70;;;;;;5072588;28;20372;-69
2022/11/22 05:50:32;;;;;;;;;;;21.10;37.40;;;;;;5072623;28;19920;-69
2022/11/22 05:53:00;;;;;;;;;;;21.10;36.70;;;;;;5072607;28;19926;-69
2022/11/22 05:55:26;;;;;;;;;;;21.10;36.70;;;;;;5071206;28;19921;-69
2022/11/22 05:57:51;;;;;;;;;;;21.10;36.80;;;;;;5071265;28;19974;-69
2022/11/22 06:00:17;;;;;;;;;;;21.00;36.80;;;;;;5071255;28;19966;-69
2022/11/22 06:02:42;;;;;;;;;;;21.00;36.90;;;;;;5071173;28;20304;-69
2022/11/22 06:05:08;;;;;;;;;;;21.00;36.80;;;;;;5072324;28;19928;-70
2022/11/22 06:07:34;;;;;;;;;;;21.10;36.90;;;;;;5072419;28;20277;-70
2022/11/22 06:09:59;;;;;;;;;;;21.00;36.90;;;;;;5071363;28;19927;-69
2022/11/22 06:12:25;;;;;;;;;;;21.00;36.90;;;;;;5071380;28;20015;-70
2022/11/22 06:14:50;;;;;;;;;;;20.90;37.00;;;;;;5072539;28;19944;-70
2022/11/22 06:17:16;;;;;;;;;;;20.80;37.00;;;;;;5071397;28;20377;-69
2022/11/22 06:19:41;;;;;;;;;;;20.90;37.00;;;;;;5072293;28;19927;-69
2022/11/22 06:22:08;;;;;;;;;;;20.90;37.00;;;;;;5070996;28;19983;-69
2022/11/22 06:24:34;;;;;;;;;;;20.90;37.00;;;;;;5071139;28;20303;-69
2022/11/22 06:26:59;;;;;;;;;;;21.00;37.10;;;;;;5070592;28;19939;-69
2022/11/22 06:29:25;;;;;;;;;;;20.90;37.10;;;;;;5071273;28;20391;-69
2022/11/22 06:31:50;;;;;;;;;;;20.90;37.10;;;;;;5072153;28;19921;-69
2022/11/22 06:34:16;;;;;;;;;;;20.90;37.10;;;;;;5070908;28;19971;-69
2022/11/22 06:36:41;;;;;;;;;;;20.80;37.00;;;;;;5070550;28;20007;-68
2022/11/22 06:39:07;;;;;;;;;;;20.90;37.20;;;;;;5070295;28;20015;-69
2022/11/22 06:41:34;;;;;;;;;;;21.00;37.20;;;;;;5064876;28;19921;-69
2022/11/22 06:44:02;;;;;;;;;;;21.50;37.30;;;;;;5069565;28;20332;-70
2022/11/22 06:46:28;;;;;;;;;;;22.10;36.70;;;;;;5068454;28;19920;-70
2022/11/22 06:48:53;;;;;;;;;;;22.60;36.00;;;;;;5068893;28;19994;-69
2022/11/22 06:51:23;;;;;;;;;;;23.10;35.60;;;;;;5067573;28;19952;-69
2022/11/22 06:53:49;;;;;;;;;;;23.40;35.10;;;;;;5066077;28;19923;-68
2022/11/22 06:56:16;;;;;;;;;;;23.70;35.00;;;;;;5068354;28;20426;-69
2022/11/22 06:58:42;;;;;;;;;;;23.80;34.80;;;;;;5069919;28;19924;-69
2022/11/22 07:01:09;;;;;;;;;;;23.80;34.90;;;;;;5067396;28;19916;-66
2022/11/22 07:03:35;;;;;;;;;;;23.70;34.90;;;;;;5045884;28;19920;-68
2022/11/22 07:06:01;;;;;;;;;;;23.80;35.10;;;;;;5063518;28;20275;-67
2022/11/22 07:08:27;;;;;;;;;;;23.80;35.10;;;;;;5066826;28;20009;-68
2022/11/22 07:10:52;;;;;;;;;;;23.90;35.00;;;;;;5062723;28;20380;-70
2022/11/22 07:13:18;;;;;;;;;;;23.90;34.80;;;;;;5068648;28;19959;-69
2022/11/22 07:15:52;;;;;;;;;;;23.90;34.80;;;;;;5069852;28;19942;-71
2022/11/22 07:18:18;;;;;;;;;;;24.10;35.00;;;;;;5068624;28;20027;-72
2022/11/22 07:20:43;;;;;;;;;;;24.20;34.90;;;;;;5068586;28;19995;-72
2022/11/22 07:23:11;;;;;;;;;;;24.20;34.90;;;;;;5067788;28;19924;-71
2022/11/22 07:25:36;;;;;;;;;;;24.20;35.10;;;;;;5064074;28;19929;-72
2022/11/22 07:28:02;;;;;;;;;;;24.30;35.00;;;;;;5049248;28;19924;-71
2022/11/22 07:30:28;;;;;;;;;;;24.40;35.10;;;;;;5063000;28;20525;-72
2022/11/22 07:32:53;;;;;;;;;;;24.40;34.80;;;;;;5053379;28;20396;-71
2022/11/22 07:35:19;;;;;;;;;;;24.60;34.60;;;;;;5052618;28;20431;-69
2022/11/22 07:37:45;;;;;;;;;;;24.60;34.80;;;;;;5051818;28;20341;-74
2022/11/22 07:40:11;;;;;;;;;;;24.80;35.00;;;;;;5051432;28;19985;-74
2022/11/22 07:42:36;;;;;;;;;;;25.10;34.70;;;;;;5052494;28;19925;-74
2022/11/22 07:45:02;;;;;;;;;;;25.10;34.70;;;;;;5053300;28;19980;-72
2022/11/22 07:47:27;;;;;;;;;;;24.90;34.80;;;;;;5056845;28;19959;-72
2022/11/22 07:49:53;;;;;;;;;;;24.60;35.00;;;;;;5056349;28;19956;-71
2022/11/22 07:52:18;;;;;;;;;;;24.30;35.60;;;;;;5048419;28;20436;-72
2022/11/22 07:54:44;;;;;;;;;;;23.90;36.10;;;;;;5045832;28;19925;-70
2022/11/22 07:57:09;;;;;;;;;;;23.60;36.60;;;;;;5051092;28;19928;-70
2022/11/22 07:59:35;;;;;;;;;;;23.40;37.10;;;;;;5054287;28;20374;-68
2022/11/22 08:02:01;;;;;;;;;;;23.20;37.40;;;;;;5051368;28;19929;-74
2022/11/22 08:04:27;;;;;;;;;;;23.10;37.60;;;;;;5051548;28;19934;-71
2022/11/22 08:06:52;;;;;;;;;;;22.90;37.70;;;;;;5049768;28;19940;-72
2022/11/22 08:09:18;;;;;;;;;;;22.60;37.90;;;;;;5052555;28;20706;-72
2022/11/22 08:11:43;;;;;;;;;;;22.40;38.10;;;;;;5051883;28;19921;-74
2022/11/22 08:14:09;;;;;;;;;;;22.10;38.50;;;;;;5044920;28;19924;-76
2022/11/22 08:16:35;;;;;;;;;;;21.90;39.00;;;;;;5069388;28;20482;-72
2022/11/22 08:19:00;;;;;;;;;;;21.70;39.40;;;;;;5053261;28;19982;-75
2022/11/22 08:21:26;;;;;;;;;;;21.60;39.60;;;;;;5050340;28;20018;-70
2022/11/22 08:23:55;;;;;;;;;;;21.40;39.80;;;;;;5046392;28;20646;-75
2022/11/22 08:26:21;;;;;;;;;;;21.10;40.20;;;;;;5047744;28;19933;-69
2022/11/22 08:28:46;;;;;;;;;;;21.00;40.60;;;;;;5048700;28;19924;-74
2022/11/22 08:31:14;;;;;;;;;;;20.90;40.60;;;;;;5047808;28;20030;-74
2022/11/22 08:33:40;;;;;;;;;;;20.60;41.00;;;;;;5037399;28;19924;-74
2022/11/22 08:36:05;;;;;;;;;;;20.50;41.40;;;;;;5047426;28;19925;-71
2022/11/22 08:38:31;;;;;;;;;;;20.40;41.80;;;;;;5065231;28;22004;-67
2022/11/22 08:40:57;;;;;;;;;;;20.50;42.00;;;;;;5041808;28;19968;-73
2022/11/22 08:43:23;;;;;;;;;;;20.70;41.90;;;;;;5041983;28;19978;-73
2022/11/22 08:45:52;;;;;;;;;;;21.00;41.60;;;;;;5054989;28;19994;-72
2022/11/22 08:48:18;;;;;;;;;;;21.20;41.20;;;;;;5056974;28;20265;-74
2022/11/22 08:50:52;;;;;;;;;;;21.50;40.90;;;;;;5049821;28;19924;-73
2022/11/22 08:53:17;;;;;;;;;;;21.70;40.60;;;;;;5056152;28;20023;-73
2022/11/22 08:55:43;;;;;;;;;;;22.00;40.50;;;;;;5067595;28;20390;-73
2022/11/22 08:58:09;;;;;;;;;;;22.10;40.30;;;;;;5056922;28;20359;-69
2022/11/22 09:00:34;;;;;;;;;;;22.30;40.20;;;;;;5055548;28;20762;-72
2022/11/22 09:03:00;;;;;;;;;;;22.30;40.10;;;;;;5054080;28;20308;-71
2022/11/22 09:05:25;;;;;;;;;;;22.40;40.10;;;;;;5056043;28;19932;-72
2022/11/22 09:07:51;;;;;;;;;;;22.30;40.00;;;;;;5054516;28;19940;-72
2022/11/22 09:10:17;;;;;;;;;;;22.30;40.20;;;;;;5051118;28;19924;-71
2022/11/22 09:12:43;;;;;;;;;;;22.30;40.40;;;;;;5050864;28;19924;-74
2022/11/22 09:15:09;;;;;;;;;;;22.10;40.70;;;;;;5053103;28;20322;-74
2022/11/22 09:17:35;;;;;;;;;;;22.00;41.00;;;;;;5055591;28;20007;-72
2022/11/22 09:20:00;;;;;;;;;;;21.90;41.30;;;;;;5055692;28;19932;-69
2022/11/22 09:22:26;;;;;;;;;;;21.70;41.60;;;;;;5050978;28;20519;-74
2022/11/22 09:24:52;;;;;;;;;;;21.50;41.80;;;;;;5050920;28;19940;-70
2022/11/22 09:27:19;;;;;;;;;;;21.30;42.10;;;;;;5067530;28;19924;-71
2022/11/22 09:29:44;;;;;;;;;;;21.20;42.50;;;;;;5074434;28;19924;-71
2022/11/22 09:32:10;;;;;;;;;;;21.00;42.90;;;;;;5069842;28;19931;-70
2022/11/22 09:34:35;;;;;;;;;;;20.90;43.30;;;;;;5074780;28;19930;-70
2022/11/22 09:37:01;;;;;;;;;;;20.80;43.60;;;;;;5075808;28;20608;-72
2022/11/22 09:39:26;;;;;;;;;;;20.70;43.70;;;;;;5055371;28;19931;-68
2022/11/22 09:44:59;;;;;;;;;;;20.60;44.00;;;;;;5072734;28;19920;-68
2022/11/22 09:47:44;;;;;;;;;;;20.60;44.00;;;;;;5054039;28;19929;-71
2022/11/22 09:50:29;;;;;;;;;;;20.80;43.90;;;;;;5054228;28;19924;-71
2022/11/22 09:53:01;;;;;;;;;;;21.00;43.70;;;;;;5067058;28;19928;-76
2022/11/22 09:55:31;;;;;;;;;;;21.20;43.50;;;;;;5051902;28;20491;-69
2022/11/22 10:00:41;;;;;;;;;;;21.50;42.90;;;;;;5087199;27;19920;-72
2022/11/22 10:03:26;;;;;;;;;;;21.70;42.60;;;;;;5080984;28;19924;-72
2022/11/22 10:05:55;;;;;;;;;;;21.80;42.30;;;;;;5114246;27;20451;-74
2022/11/22 10:11:04;;;;;;;;;;;22.00;42.00;;;;;;5088539;27;19920;-84
2022/11/22 10:13:35;;;;;;;;;;;22.00;41.90;;;;;;5084049;28;20467;-69
2022/11/22 10:16:09;;;;;;;;;;;22.00;41.90;;;;;;5083028;28;19920;-71
2022/11/22 10:18:45;;;;;;;;;;;22.00;41.80;;;;;;5086018;28;20328;-75
2022/11/22 10:21:12;;;;;;;;;;;22.00;41.80;;;;;;5085078;28;20447;-68
2022/11/22 10:23:39;;;;;;;;;;;22.00;42.60;;;;;;5089266;28;20377;-66
2022/11/22 10:26:12;;;;;;;;;;;21.90;42.00;;;;;;5083797;28;20031;-71
2022/11/22 10:28:41;;;;;;;;;;;21.80;42.20;;;;;;5118837;27;19924;-72
2022/11/22 10:31:14;;;;;;;;;;;21.60;42.50;;;;;;5088024;28;19931;-74
2022/11/22 10:33:44;;;;;;;;;;;21.50;42.70;;;;;;5087990;28;20454;-71
2022/11/22 10:39:16;;;;;;;;;;;21.30;43.20;;;;;;5113693;27;1869283;-77
2022/11/22 10:44:47;;;;;;;;;;;21.10;43.60;;;;;;5102401;27;1875574;-69
2022/11/22 10:50:12;;;;;;;;;;;20.90;44.10;;;;;;5085728;27;1863249;-74
2022/11/22 10:52:58;;;;;;;;;;;21.00;44.30;;;;;;5147535;27;20423;-65
2022/11/22 11:00:48;;;;;;;;;;;21.00;44.30;;;;;;5091468;27;20298;-73
2022/11/22 11:03:33;;;;;;;;;;;20.90;44.10;;;;;;5082697;28;20035;-72
2022/11/22 11:08:41;;;;;;;;;;;21.00;43.80;;;;;;5068446;28;19931;-73
2022/11/22 11:11:07;;;;;;;;;;;21.10;43.60;;;;;;5067442;28;19931;-71
2022/11/22 11:13:35;;;;;;;;;;;21.20;43.40;;;;;;5081843;28;19921;-72
2022/11/22 11:16:03;;;;;;;;;;;21.20;43.20;;;;;;5062847;28;19932;-72
2022/11/22 11:21:13;;;;;;;;;;;21.40;42.70;;;;;;5068806;28;19946;-73
2022/11/22 11:23:39;;;;;;;;;;;21.50;42.50;;;;;;5069207;28;19990;-73
2022/11/22 11:29:17;;;;;;;;;;;21.70;42.10;;;;;;5085433;27;20033;-73
2022/11/22 11:34:26;;;;;;;;;;;21.80;41.80;;;;;;5070580;28;19924;-73
2022/11/22 11:36:53;;;;;;;;;;;21.80;41.60;;;;;;5063666;28;19924;-73
2022/11/22 11:39:20;;;;;;;;;;;21.80;41.60;;;;;;5065418;28;20375;-74
2022/11/22 11:41:46;;;;;;;;;;;21.80;41.50;;;;;;5058321;28;19920;-74
2022/11/22 11:44:25;;;;;;;;;;;21.80;41.40;;;;;;5063802;28;20669;-72
2022/11/22 11:46:51;;;;;;;;;;;21.80;41.40;;;;;;5059186;28;19979;-75
2022/11/22 11:49:19;;;;;;;;;;;21.80;41.30;;;;;;5062080;28;20005;-76
2022/11/22 11:51:47;;;;;;;;;;;21.80;41.20;;;;;;5060169;28;20039;-74
2022/11/22 11:54:14;;;;;;;;;;;21.80;41.20;;;;;;5053241;28;19949;-72
2022/11/22 11:59:22;;;;;;;;;;;21.80;41.20;;;;;;5091666;27;1857359;-75
2022/11/22 12:02:05;;;;;;;;;;;21.80;41.20;;;;;;5114534;27;19924;-79
2022/11/22 12:04:33;;;;;;;;;;;21.70;41.00;;;;;;5112625;27;19929;-74
2022/11/22 12:07:02;;;;;;;;;;;21.70;41.10;;;;;;5109939;27;19930;-75
2022/11/22 12:09:29;;;;;;;;;;;21.70;41.00;;;;;;5112677;27;19924;-78
2022/11/22 12:11:57;;;;;;;;;;;21.70;41.00;;;;;;5116373;27;20382;-75
2022/11/22 12:14:24;;;;;;;;;;;21.60;41.00;;;;;;5115735;27;19924;-79
2022/11/22 12:16:53;;;;;;;;;;;21.50;40.90;;;;;;5109285;27;20009;-73
2022/11/22 12:19:38;;;;;;;;;;;21.60;40.90;;;;;;5109971;27;19923;-77
2022/11/22 12:22:24;;;;;;;;;;;21.60;41.00;;;;;;5129610;27;20389;-74
2022/11/22 12:24:53;;;;;;;;;;;21.60;41.00;;;;;;5116055;27;19966;-74
2022/11/22 12:27:18;;;;;;;;;;;21.60;40.90;;;;;;5121636;27;19996;-75
2022/11/22 12:29:44;;;;;;;;;;;21.50;40.80;;;;;;5113355;27;20018;-74
2022/11/22 12:35:03;;;;;;;;;;;21.50;40.70;;;;;;5069860;27;19924;-74
2022/11/22 12:37:32;;;;;;;;;;;21.60;40.70;;;;;;5070227;28;19939;-74
2022/11/22 12:40:00;;;;;;;;;;;21.60;40.70;;;;;;5074819;28;19924;-74
2022/11/22 12:42:29;;;;;;;;;;;21.50;40.60;;;;;;5109975;28;19924;-74
2022/11/22 12:45:00;;;;;;;;;;;21.60;40.60;;;;;;5077952;28;20022;-72
2022/11/22 12:47:30;;;;;;;;;;;21.60;40.60;;;;;;5077752;28;19931;-72
2022/11/22 12:49:58;;;;;;;;;;;21.60;40.50;;;;;;5079802;28;19924;-70
2022/11/22 12:52:28;;;;;;;;;;;21.60;40.50;;;;;;5076878;28;19932;-72
2022/11/22 12:54:58;;;;;;;;;;;21.60;40.40;;;;;;5075268;28;19977;-73
2022/11/22 12:57:30;;;;;;;;;;;21.60;40.40;;;;;;5071589;28;19921;-73
2022/11/22 13:00:00;;;;;;;;;;;21.60;40.30;;;;;;5080545;28;19920;-72
2022/11/22 13:02:38;;;;;;;;;;;21.60;40.30;;;;;;5079361;28;19946;-73
2022/11/22 13:05:10;;;;;;;;;;;21.60;40.20;;;;;;5113696;28;19920;-73
2022/11/22 13:12:58;;;;;;;;;;;21.60;40.10;;;;;;5089399;27;19946;-70
2022/11/22 13:15:27;;;;;;;;;;;21.60;40.10;;;;;;5074822;28;20281;-72
2022/11/22 13:17:52;;;;;;;;;;;21.60;40.10;;;;;;5071358;28;19928;-74
2022/11/22 13:20:21;;;;;;;;;;;21.60;40.00;;;;;;5095876;27;20572;-78
2022/11/22 13:28:16;;;;;;;;;;;21.90;40.40;;;;;;5069315;28;20287;-76
2022/11/22 13:31:02;;;;;;;;;;;21.50;39.90;;;;;;5050983;28;19936;-78
2022/11/22 13:33:27;;;;;;;;;;;22.60;40.00;;;;;;5068137;28;20376;-75
2022/11/22 13:36:13;;;;;;;;;;;23.30;39.40;;;;;;5050697;28;19936;-73
2022/11/22 13:38:41;;;;;;;;;;;23.70;38.80;;;;;;5056594;28;19944;-77
2022/11/22 13:41:20;;;;;;;;;;;24.30;38.10;;;;;;5055050;28;19925;-70
2022/11/22 13:43:50;;;;;;;;;;;24.70;37.60;;;;;;5052852;28;20389;-78
2022/11/22 13:46:36;;;;;;;;;;;25.10;37.10;;;;;;5057001;28;19929;-71
2022/11/22 13:49:21;;;;;;;;;;;25.40;36.80;;;;;;5056612;28;19982;-76
2022/11/22 13:51:50;;;;;;;;;;;25.70;36.60;;;;;;5068873;28;20395;-73
2022/11/22 13:54:35;;;;;;;;;;;27.20;37.10;;;;;;5074608;28;19924;-78
2022/11/22 13:57:03;;;;;;;;;;;26.20;36.00;;;;;;5047024;28;19967;-73
2022/11/22 13:59:29;;;;;;;;;;;26.40;35.80;;;;;;5030590;28;20692;-77
2022/11/22 14:01:56;;;;;;;;;;;26.50;35.70;;;;;;5066820;28;19921;-75
2022/11/22 14:07:19;;;;;;;;;;;26.80;35.60;;;;;;5071970;27;19920;-76
2022/11/22 14:10:00;;;;;;;;;;;26.90;35.50;;;;;;5081562;28;19920;-76
2022/11/22 14:15:18;;;;;;;;;;;27.00;35.10;;;;;;5101021;27;19937;-79
2022/11/22 14:20:45;;;;;;;;;;;26.90;35.30;;;;;;5090188;27;19917;-75
2022/11/22 14:26:00;;;;;;;;;;;26.90;34.50;;;;;;5102290;27;19912;-76
2022/11/22 14:31:25;;;;;;;;;;;26.50;34.10;;;;;;5092486;27;19949;-75
2022/11/22 14:34:10;;;;;;;;;;;26.30;34.40;;;;;;5077795;28;19920;-74
2022/11/22 14:36:36;;;;;;;;;;;26.30;34.70;;;;;;5076383;28;19930;-71
2022/11/22 14:39:21;;;;;;;;;;;26.20;34.70;;;;;;5073349;28;19924;-69
2022/11/22 14:41:47;;;;;;;;;;;26.10;34.80;;;;;;5106425;28;20419;-67
2022/11/22 14:44:33;;;;;;;;;;;26.00;35.00;;;;;;5078991;28;19928;-72
2022/11/22 14:47:03;;;;;;;;;;;25.90;35.20;;;;;;5073243;28;19928;-74
2022/11/22 14:49:40;;;;;;;;;;;25.90;35.50;;;;;;5065394;28;19936;-73
2022/11/22 14:52:15;;;;;;;;;;;27.40;36.50;;;;;;5076680;28;19946;-73
2022/11/22 14:54:44;;;;;;;;;;;26.10;35.20;;;;;;5106397;28;20015;-73
2022/11/22 14:57:14;;;;;;;;;;;26.20;34.90;;;;;;5106078;28;19932;-73
2022/11/22 14:59:51;;;;;;;;;;;26.30;34.70;;;;;;5078402;28;19974;-76
2022/11/22 15:02:36;;;;;;;;;;;26.20;34.70;;;;;;5070598;28;20376;-72
2022/11/22 15:08:00;;;;;;;;;;;26.00;34.80;;;;;;5110807;27;19915;-73
2022/11/22 15:10:46;;;;;;;;;;;25.80;35.20;;;;;;5119663;27;19924;-72
2022/11/22 15:15:58;;;;;;;;;;;25.60;35.50;;;;;;5065969;28;19923;-72
2022/11/22 15:18:40;;;;;;;;;;;25.60;35.60;;;;;;5075759;28;20540;-73
2022/11/22 15:21:14;;;;;;;;;;;25.50;35.60;;;;;;5063013;28;20672;-72
2022/11/22 15:23:43;;;;;;;;;;;25.30;35.80;;;;;;5063544;28;19920;-72
2022/11/22 15:26:13;;;;;;;;;;;25.20;36.00;;;;;;5063608;28;19952;-70
2022/11/22 15:28:47;;;;;;;;;;;25.20;36.00;;;;;;5060988;28;20012;-72
2022/11/22 15:31:14;;;;;;;;;;;25.00;36.20;;;;;;5061380;28;19929;-71
2022/11/22 15:33:44;;;;;;;;;;;24.90;36.50;;;;;;5059580;28;19998;-72
2022/11/22 15:38:51;;;;;;;;;;;24.50;36.90;;;;;;5082065;28;19916;-72
2022/11/22 15:41:20;;;;;;;;;;;24.30;37.00;;;;;;5084933;28;19920;-72
2022/11/22 15:43:47;;;;;;;;;;;24.10;37.30;;;;;;5086225;28;19924;-72
2022/11/22 15:46:13;;;;;;;;;;;24.00;37.50;;;;;;5084973;28;20557;-73